createdAt,value
2023-02-02T00:01:30.208Z,12.05
2023-02-02T00:03:58.652Z,11.25
2023-02-02T00:06:27.687Z,12.02
2023-02-02T00:08:57.262Z,17.08
2023-02-02T00:11:25.126Z,10.55
2023-02-02T00:13:51.855Z,12.57
2023-02-02T00:16:30.596Z,9.93
2023-02-02T00:19:00.653Z,11.15
2023-02-02T00:21:28.086Z,15.40
2023-02-02T00:23:54.864Z,8.32
2023-02-02T00:26:22.155Z,11.13
2023-02-02T00:28:49.176Z,12.50
2023-02-02T00:31:15.934Z,8.82
2023-02-02T00:33:47.182Z,9.85
2023-02-02T00:36:14.436Z,12.57
2023-02-02T00:38:42.167Z,9.80
2023-02-02T00:41:08.926Z,7.70
2023-02-02T00:43:35.560Z,12.25
2023-02-02T00:46:02.312Z,4.70
2023-02-02T00:48:29.127Z,10.07
2023-02-02T00:50:55.948Z,13.80
2023-02-02T00:53:22.770Z,11.80
2023-02-02T00:55:49.531Z,9.95
2023-02-02T00:58:16.546Z,7.00
2023-02-02T01:00:43.229Z,9.05
2023-02-02T01:03:10.362Z,6.45
2023-02-02T01:05:37.140Z,8.05
2023-02-02T01:08:03.885Z,7.90
2023-02-02T01:10:30.701Z,8.55
2023-02-02T01:12:57.727Z,5.63
2023-02-02T01:15:25.049Z,10.15
2023-02-02T01:17:52.027Z,8.10
2023-02-02T01:20:20.657Z,9.52
2023-02-02T01:22:47.822Z,10.93
2023-02-02T01:25:14.826Z,5.15
2023-02-02T01:27:43.176Z,5.88
2023-02-02T01:30:10.955Z,11.68
2023-02-02T01:32:39.249Z,8.38
2023-02-02T01:35:06.646Z,10.05
2023-02-02T01:37:33.385Z,8.48
2023-02-02T01:40:00.171Z,8.60
2023-02-02T01:42:27.845Z,7.25
2023-02-02T01:45:19.514Z,7.32
2023-02-02T01:47:50.575Z,7.97
2023-02-02T01:50:20.983Z,7.20
2023-02-02T01:52:51.193Z,6.47
2023-02-02T01:55:22.095Z,7.95
2023-02-02T01:58:00.404Z,4.70
2023-02-02T02:00:27.885Z,7.18
2023-02-02T02:02:58.697Z,5.72
2023-02-02T02:05:32.560Z,9.93
2023-02-02T02:08:19.423Z,3.13
2023-02-02T02:10:46.635Z,5.38
2023-02-02T02:13:14.759Z,5.55
2023-02-02T02:16:14.218Z,9.13
2023-02-02T02:18:51.567Z,5.47
2023-02-02T02:22:01.367Z,9.80
2023-02-02T02:25:17.994Z,8.63
2023-02-02T02:27:50.686Z,11.68
2023-02-02T02:30:38.735Z,9.75
2023-02-02T02:33:17.979Z,7.07
2023-02-02T02:36:02.744Z,5.53
2023-02-02T02:38:38.035Z,7.72
2023-02-02T02:41:12.227Z,10.60
2023-02-02T02:43:47.978Z,6.53
2023-02-02T02:46:15.110Z,8.50
2023-02-02T02:48:45.176Z,11.02
2023-02-02T02:51:43.128Z,9.50
2023-02-02T02:54:14.997Z,9.25
2023-02-02T02:56:47.674Z,7.20
2023-02-02T02:59:22.481Z,11.63
2023-02-02T03:01:59.707Z,11.77
2023-02-02T03:04:44.982Z,10.00
2023-02-02T03:07:21.951Z,9.00
2023-02-02T03:09:50.272Z,7.80
2023-02-02T03:12:17.944Z,12.13
2023-02-02T03:14:44.755Z,6.05
2023-02-02T03:17:11.393Z,6.00
2023-02-02T03:19:38.058Z,6.30
2023-02-02T03:22:04.677Z,7.18
2023-02-02T03:24:31.419Z,9.52
2023-02-02T03:26:58.127Z,9.45
2023-02-02T03:29:25.273Z,11.52
2023-02-02T03:31:52.016Z,7.80
2023-02-02T03:34:18.776Z,8.02
2023-02-02T03:36:45.380Z,12.07
2023-02-02T03:39:12.014Z,7.10
2023-02-02T03:41:38.623Z,6.88
2023-02-02T03:44:05.481Z,10.80
2023-02-02T03:46:32.134Z,6.85
2023-02-02T03:48:58.772Z,9.70
2023-02-02T03:51:25.566Z,13.55
2023-02-02T03:53:52.250Z,10.10
2023-02-02T03:56:19.537Z,8.43
2023-02-02T03:58:47.172Z,6.57
2023-02-02T04:01:15.015Z,6.00
2023-02-02T04:03:42.080Z,7.95
2023-02-02T04:06:09.291Z,14.20
2023-02-02T04:08:36.137Z,6.78
2023-02-02T04:11:03.155Z,7.72
2023-02-02T04:13:29.847Z,8.95
2023-02-02T04:16:01.133Z,8.23
2023-02-02T04:18:28.828Z,7.40
2023-02-02T04:20:57.684Z,7.10
2023-02-02T04:23:24.422Z,10.38
2023-02-02T04:25:51.768Z,8.57
2023-02-02T04:28:18.747Z,15.10
2023-02-02T04:30:45.574Z,11.13
2023-02-02T04:33:12.283Z,17.48
2023-02-02T04:35:38.956Z,11.98
2023-02-02T04:38:05.624Z,12.45
2023-02-02T04:40:32.341Z,11.85
2023-02-02T04:42:59.114Z,7.80
2023-02-02T04:45:26.143Z,13.70
2023-02-02T04:47:53.180Z,16.40
2023-02-02T04:50:20.021Z,16.08
2023-02-02T04:52:46.854Z,16.17
2023-02-02T04:55:13.741Z,8.68
2023-02-02T04:57:40.532Z,9.27
2023-02-02T05:00:07.993Z,10.60
2023-02-02T05:02:39.020Z,13.15
2023-02-02T05:05:09.348Z,12.65
2023-02-02T05:07:36.721Z,12.35
2023-02-02T05:10:05.024Z,15.30
2023-02-02T05:12:31.768Z,16.20
2023-02-02T05:15:01.063Z,7.82
2023-02-02T05:17:27.889Z,13.13
2023-02-02T05:19:54.768Z,13.30
2023-02-02T05:22:21.508Z,14.50
2023-02-02T05:24:48.249Z,17.80
2023-02-02T05:27:15.042Z,16.65
2023-02-02T05:29:41.787Z,13.50
2023-02-02T05:32:08.588Z,12.50
2023-02-02T05:34:35.337Z,18.42
2023-02-02T05:37:02.087Z,9.48
2023-02-02T05:39:28.733Z,13.65
2023-02-02T05:41:55.420Z,12.13
2023-02-02T05:44:22.329Z,11.25
2023-02-02T05:46:48.974Z,10.35
2023-02-02T05:49:15.758Z,14.32
2023-02-02T05:51:48.446Z,12.43
2023-02-02T05:54:19.293Z,15.77
2023-02-02T05:56:50.884Z,13.82
2023-02-02T05:59:18.465Z,11.98
2023-02-02T06:01:46.510Z,13.93
2023-02-02T06:04:13.690Z,16.23
2023-02-02T06:06:41.484Z,16.02
2023-02-02T06:09:08.801Z,12.15
2023-02-02T06:11:35.685Z,15.98
2023-02-02T06:14:02.473Z,16.27
2023-02-02T06:16:29.316Z,10.93
2023-02-02T06:18:56.299Z,15.73
2023-02-02T06:21:25.745Z,18.70
2023-02-02T06:23:52.870Z,12.15
2023-02-02T06:26:19.684Z,16.75
2023-02-02T06:28:53.820Z,9.65
2023-02-02T06:31:20.984Z,14.98
2023-02-02T06:33:52.404Z,17.17
2023-02-02T06:36:19.162Z,12.48
2023-02-02T06:38:50.196Z,17.08
2023-02-02T06:41:17.395Z,13.25
2023-02-02T06:43:44.359Z,13.43
2023-02-02T06:46:11.370Z,19.77
2023-02-02T06:48:38.209Z,18.30
2023-02-02T06:51:05.576Z,14.02
2023-02-02T06:53:32.855Z,15.38
2023-02-02T06:56:02.155Z,14.93
2023-02-02T06:58:29.943Z,16.50
2023-02-02T07:01:05.822Z,17.38
2023-02-02T07:03:33.567Z,15.50
2023-02-02T07:06:17.938Z,11.77
2023-02-02T07:08:45.190Z,15.13
2023-02-02T07:11:16.655Z,15.30
2023-02-02T07:13:45.558Z,12.77
2023-02-02T07:16:13.480Z,15.85
2023-02-02T07:18:42.817Z,18.08
2023-02-02T07:21:17.462Z,13.98
2023-02-02T07:23:44.338Z,12.38
2023-02-02T07:26:12.192Z,16.92
2023-02-02T07:28:38.912Z,14.02
2023-02-02T07:31:20.688Z,11.75
2023-02-02T07:33:48.717Z,13.18
2023-02-02T07:36:18.364Z,14.18
2023-02-02T07:38:47.078Z,23.60
2023-02-02T07:41:14.885Z,11.23
2023-02-02T07:43:41.872Z,15.35
2023-02-02T07:46:10.258Z,16.50
2023-02-02T07:48:37.634Z,17.38
2023-02-02T07:51:07.659Z,13.23
2023-02-02T07:53:35.569Z,15.88
2023-02-02T07:56:15.029Z,9.55
2023-02-02T07:58:42.912Z,13.40
2023-02-02T08:01:11.597Z,9.25
2023-02-02T08:03:39.257Z,12.02
2023-02-02T08:06:10.547Z,17.98
2023-02-02T08:08:37.306Z,10.82
2023-02-02T08:11:04.076Z,14.23
2023-02-02T08:13:30.716Z,12.63
2023-02-02T08:15:58.497Z,10.43
2023-02-02T08:18:25.494Z,13.48
2023-02-02T08:20:52.718Z,9.00
2023-02-02T08:23:23.584Z,6.13
2023-02-02T08:25:50.993Z,6.93
2023-02-02T08:28:18.840Z,6.97
2023-02-02T08:30:46.527Z,12.70
2023-02-02T08:33:13.750Z,4.72
2023-02-02T08:35:44.441Z,6.63
2023-02-02T08:38:11.127Z,7.32
2023-02-02T08:40:37.794Z,5.57
2023-02-02T08:43:04.837Z,5.03
2023-02-02T08:46:01.673Z,8.30
2023-02-02T08:48:19.821Z,4.50
2023-02-02T08:50:55.697Z,3.28
2023-02-02T08:53:23.521Z,4.55
2023-02-02T08:56:04.933Z,6.13
2023-02-02T08:58:32.072Z,4.88
2023-02-02T09:01:36.869Z,3.55
2023-02-02T09:04:08.352Z,8.93
2023-02-02T09:06:39.526Z,9.20
2023-02-02T09:09:09.179Z,6.95
2023-02-02T09:11:36.616Z,4.53
2023-02-02T09:14:06.459Z,7.78
2023-02-02T09:16:35.236Z,8.52
2023-02-02T09:19:02.740Z,7.93
2023-02-02T09:21:29.541Z,9.80
2023-02-02T09:23:56.559Z,5.50
2023-02-02T09:26:26.644Z,9.15
2023-02-02T09:29:02.885Z,11.07
2023-02-02T09:31:34.649Z,7.85
2023-02-02T09:34:11.246Z,6.35
2023-02-02T09:36:39.975Z,6.15
2023-02-02T09:39:07.490Z,5.75
2023-02-02T09:41:37.128Z,6.07
2023-02-02T09:44:06.731Z,7.53
2023-02-02T09:46:58.585Z,4.82
2023-02-02T09:49:48.343Z,4.68
2023-02-02T09:52:46.785Z,3.28
2023-02-02T09:55:39.129Z,3.80
2023-02-02T09:58:27.140Z,6.97
2023-02-02T10:01:15.702Z,4.32
2023-02-02T10:03:58.718Z,3.25
2023-02-02T10:06:41.045Z,5.47
2023-02-02T10:09:10.581Z,4.20
2023-02-02T10:11:43.560Z,4.07
2023-02-02T10:14:53.103Z,6.05
2023-02-02T10:20:12.596Z,5.85
2023-02-02T10:22:40.235Z,3.30
2023-02-02T10:25:12.232Z,1.90
2023-02-02T10:27:40.946Z,5.15
2023-02-02T10:30:19.289Z,7.53
2023-02-02T10:33:01.253Z,4.72
2023-02-02T10:35:42.888Z,2.70
2023-02-02T10:38:38.495Z,3.55
2023-02-02T10:41:25.617Z,2.50
2023-02-02T10:44:17.457Z,2.42
2023-02-02T10:46:48.903Z,3.60
2023-02-02T10:49:22.383Z,4.70
2023-02-02T10:51:58.213Z,3.10
2023-02-02T10:54:55.867Z,3.70
2023-02-02T10:57:30.554Z,4.88
2023-02-02T11:00:02.384Z,5.80
2023-02-02T11:02:29.539Z,2.70
2023-02-02T11:05:15.656Z,6.63
2023-02-02T11:07:42.551Z,3.13
2023-02-02T11:10:10.607Z,4.32
2023-02-02T11:12:42.160Z,6.60
2023-02-02T11:15:25.761Z,7.00
2023-02-02T11:17:52.534Z,2.50
2023-02-02T11:20:31.207Z,2.60
2023-02-02T11:23:03.933Z,3.22
2023-02-02T11:25:34.291Z,4.40
2023-02-02T11:28:11.026Z,3.28
2023-02-02T11:30:38.802Z,5.10
2023-02-02T11:33:28.385Z,4.30
2023-02-02T11:36:01.836Z,3.22
2023-02-02T11:38:29.667Z,2.88
2023-02-02T11:41:07.044Z,3.75
2023-02-02T11:43:42.133Z,3.33
2023-02-02T11:46:21.955Z,2.05
2023-02-02T11:49:23.300Z,4.78
2023-02-02T11:52:02.079Z,5.53
2023-02-02T11:54:33.217Z,3.60
2023-02-02T11:57:02.765Z,3.00
2023-02-02T11:59:39.526Z,2.65
2023-02-02T12:02:26.351Z,3.10
2023-02-02T12:05:11.862Z,1.63
2023-02-02T12:07:39.627Z,3.25
2023-02-02T12:10:47.991Z,4.70
2023-02-02T12:13:27.723Z,4.53
2023-02-02T12:16:08.736Z,5.35
2023-02-02T12:18:45.764Z,3.10
2023-02-02T12:21:27.971Z,3.50
2023-02-02T12:24:00.660Z,4.40
2023-02-02T12:26:37.263Z,3.15
2023-02-02T12:29:38.298Z,3.97
2023-02-02T12:32:26.930Z,4.55
2023-02-02T12:35:13.980Z,3.10
2023-02-02T12:38:11.080Z,6.43
2023-02-02T12:41:13.374Z,4.95
2023-02-02T12:43:54.406Z,4.57
2023-02-02T12:46:40.723Z,4.95
2023-02-02T12:49:48.729Z,4.35
2023-02-02T12:52:37.007Z,7.00
2023-02-02T12:55:22.015Z,3.60
2023-02-02T12:58:17.589Z,4.85
2023-02-02T13:01:05.892Z,6.40
2023-02-02T13:04:00.539Z,4.40
2023-02-02T13:06:45.535Z,5.53
2023-02-02T13:09:41.619Z,3.25
2023-02-02T13:12:11.668Z,3.30
2023-02-02T13:14:45.607Z,10.35
2023-02-02T13:17:19.331Z,4.25
2023-02-02T13:19:53.918Z,3.30
2023-02-02T13:22:40.612Z,3.30
2023-02-02T13:25:16.903Z,3.55
2023-02-02T13:27:44.683Z,4.22
2023-02-02T13:30:24.884Z,4.45
2023-02-02T13:32:53.285Z,2.50
2023-02-02T13:35:39.493Z,5.88
2023-02-02T13:38:18.581Z,3.90
2023-02-02T13:40:45.477Z,3.15
2023-02-02T13:43:33.868Z,3.88
2023-02-02T13:46:12.397Z,10.40
2023-02-02T13:49:14.523Z,3.42
2023-02-02T13:52:03.205Z,6.68
2023-02-02T13:54:49.167Z,4.95
2023-02-02T13:57:38.219Z,4.30
2023-02-02T14:00:13.963Z,6.40
2023-02-02T14:02:53.922Z,3.38
2023-02-02T14:05:31.093Z,6.57
2023-02-02T14:08:07.488Z,4.78
2023-02-02T14:10:42.367Z,7.07
2023-02-02T14:13:41.450Z,3.80
2023-02-02T14:16:20.325Z,6.32
2023-02-02T14:18:50.172Z,3.92
2023-02-02T14:21:35.078Z,4.32
2023-02-02T14:24:17.376Z,6.45
2023-02-02T14:26:48.715Z,3.58
2023-02-02T14:29:34.846Z,5.30
2023-02-02T14:32:29.682Z,7.38
2023-02-02T14:35:08.666Z,3.40
2023-02-02T14:37:59.009Z,5.57
2023-02-02T14:40:34.137Z,3.80
2023-02-02T14:43:30.623Z,4.20
2023-02-02T14:46:12.967Z,5.82
2023-02-02T14:48:42.275Z,5.55
2023-02-02T14:51:22.235Z,4.00
2023-02-02T14:54:01.612Z,2.10
2023-02-02T14:57:06.488Z,5.10
2023-02-02T14:59:39.318Z,5.22
2023-02-02T15:02:22.797Z,4.28
2023-02-02T15:04:50.115Z,7.28
2023-02-02T15:07:22.845Z,4.70
2023-02-02T15:09:56.396Z,3.92
2023-02-02T15:12:34.101Z,5.32
2023-02-02T15:15:22.660Z,5.63
2023-02-02T15:17:55.936Z,7.85
2023-02-02T15:20:26.556Z,5.43
2023-02-02T15:23:15.588Z,8.00
2023-02-02T15:26:11.575Z,3.38
2023-02-02T15:28:44.476Z,4.00
2023-02-02T15:31:11.327Z,9.38
2023-02-02T15:33:49.480Z,4.25
2023-02-02T15:36:26.401Z,5.65
2023-02-02T15:39:08.457Z,5.70
2023-02-02T15:41:41.726Z,4.05
2023-02-02T15:44:22.596Z,2.38
2023-02-02T15:46:49.696Z,6.63
2023-02-02T15:49:35.864Z,4.28
2023-02-02T15:52:12.703Z,6.35
2023-02-02T15:54:52.834Z,5.63
2023-02-02T15:57:34.090Z,5.53
2023-02-02T16:00:22.557Z,6.05
2023-02-02T16:02:58.291Z,4.85
2023-02-02T16:05:40.006Z,8.50
2023-02-02T16:08:24.711Z,4.60
2023-02-02T16:13:29.362Z,4.95
2023-02-02T16:15:58.609Z,6.15
2023-02-02T16:18:25.762Z,5.90
2023-02-02T16:20:54.321Z,8.90
2023-02-02T16:23:30.556Z,3.80
2023-02-02T16:25:59.880Z,7.38
2023-02-02T16:28:26.864Z,5.07
2023-02-02T16:30:53.801Z,5.55
2023-02-02T16:33:39.662Z,5.55
2023-02-02T16:36:29.682Z,7.90
2023-02-02T16:38:58.367Z,5.38
2023-02-02T16:41:33.914Z,6.03
2023-02-02T16:44:40.318Z,7.07
2023-02-02T16:47:23.793Z,6.00
2023-02-02T16:49:51.500Z,9.40
2023-02-02T16:52:21.250Z,5.80
2023-02-02T16:54:58.252Z,6.28
2023-02-02T16:57:34.022Z,3.78
2023-02-02T17:00:05.119Z,9.13
2023-02-02T17:02:34.980Z,6.38
2023-02-02T17:05:07.760Z,6.93
2023-02-02T17:07:37.807Z,7.72
2023-02-02T17:10:13.743Z,8.45
2023-02-02T17:12:40.543Z,4.13
2023-02-02T17:15:16.357Z,5.10
2023-02-02T17:17:50.513Z,4.50
2023-02-02T17:20:18.775Z,10.63
2023-02-02T17:22:48.533Z,5.65
2023-02-02T17:25:17.872Z,4.25
2023-02-02T17:27:45.460Z,4.95
2023-02-02T17:30:17.582Z,7.25
2023-02-02T17:35:20.916Z,6.80
2023-02-02T17:37:48.615Z,7.35
2023-02-02T17:40:17.320Z,7.15
2023-02-02T17:42:46.027Z,6.25
2023-02-02T17:45:25.010Z,6.90
2023-02-02T17:47:52.031Z,7.13
2023-02-02T17:50:19.176Z,5.97
2023-02-02T17:52:46.253Z,4.93
2023-02-02T17:55:17.957Z,8.40
2023-02-02T17:57:47.131Z,8.52
2023-02-02T18:00:15.109Z,6.35
2023-02-02T18:02:42.366Z,11.45
2023-02-02T18:05:10.433Z,7.35
2023-02-02T18:07:37.762Z,7.00
2023-02-02T18:10:06.362Z,7.55
2023-02-02T18:12:36.022Z,7.80
2023-02-02T18:15:05.545Z,6.32
2023-02-02T18:17:34.033Z,5.80
2023-02-02T18:20:01.331Z,6.07
2023-02-02T18:22:28.096Z,7.78
2023-02-02T18:24:54.781Z,7.35
2023-02-02T18:27:21.761Z,7.90
2023-02-02T18:29:48.633Z,9.23
2023-02-02T18:32:18.299Z,5.18
2023-02-02T18:34:45.700Z,4.43
2023-02-02T18:37:12.928Z,5.25
2023-02-02T18:39:40.567Z,4.22
2023-02-02T18:42:07.347Z,6.15
2023-02-02T18:44:36.356Z,9.15
2023-02-02T18:47:03.087Z,6.65
2023-02-02T18:49:29.920Z,8.60
2023-02-02T18:51:56.691Z,5.57
2023-02-02T18:54:23.730Z,6.40
2023-02-02T18:56:50.507Z,6.57
2023-02-02T18:59:17.325Z,9.48
2023-02-02T19:01:44.179Z,10.25
2023-02-02T19:04:11.368Z,9.10
2023-02-02T19:06:56.724Z,9.55
2023-02-02T19:09:24.839Z,6.65
2023-02-02T19:11:55.278Z,6.50
2023-02-02T19:14:26.975Z,9.88
2023-02-02T19:16:59.366Z,8.43
2023-02-02T19:19:33.488Z,5.50
2023-02-02T19:22:07.662Z,11.07
2023-02-02T19:24:41.191Z,8.32
2023-02-02T19:27:24.809Z,8.75
2023-02-02T19:29:55.977Z,5.28
2023-02-02T19:32:31.289Z,6.45
2023-02-02T19:35:03.221Z,9.18
2023-02-02T19:37:39.105Z,9.45
2023-02-02T19:40:09.328Z,18.17
2023-02-02T19:42:44.227Z,22.13
2023-02-02T19:45:27.586Z,8.02
2023-02-02T19:48:00.077Z,7.72
2023-02-02T19:50:33.672Z,8.95
2023-02-02T19:53:06.041Z,8.40
2023-02-02T19:55:37.047Z,7.97
2023-02-02T19:58:31.565Z,11.25
2023-02-02T20:01:15.480Z,10.98
2023-02-02T20:03:45.531Z,7.45
2023-02-02T20:06:27.202Z,9.82
2023-02-02T20:08:54.290Z,12.68
2023-02-02T20:11:32.475Z,8.15
2023-02-02T20:16:41.094Z,7.50
2023-02-02T20:19:17.275Z,8.80
2023-02-02T20:21:46.424Z,10.25
2023-02-02T20:24:23.273Z,11.15
2023-02-02T20:26:51.985Z,9.57
2023-02-02T20:29:38.175Z,5.70
2023-02-02T20:32:08.363Z,7.35
2023-02-02T20:34:41.841Z,7.47
2023-02-02T20:37:22.202Z,7.30
2023-02-02T20:39:57.416Z,7.38
2023-02-02T20:42:25.037Z,7.03
2023-02-02T20:44:52.972Z,9.55
2023-02-02T20:47:20.029Z,13.15
2023-02-02T20:49:47.189Z,6.75
2023-02-02T20:52:24.018Z,7.25
2023-02-02T20:54:51.885Z,7.95
2023-02-02T20:57:19.133Z,7.25
2023-02-02T20:59:46.095Z,7.18
2023-02-02T21:02:19.008Z,7.57
2023-02-02T21:04:49.836Z,8.20
2023-02-02T21:07:18.339Z,10.73
2023-02-02T21:09:45.788Z,13.98
2023-02-02T21:12:12.644Z,9.73
2023-02-02T21:14:39.632Z,8.65
2023-02-02T21:17:14.856Z,10.85
2023-02-02T21:19:42.966Z,7.65
2023-02-02T21:22:10.435Z,7.43
2023-02-02T21:24:37.663Z,8.52
2023-02-02T21:27:04.889Z,7.63
2023-02-02T21:29:32.727Z,9.35
2023-02-02T21:32:02.544Z,10.07
2023-02-02T21:34:30.984Z,5.97
2023-02-02T21:36:58.735Z,6.85
2023-02-02T21:39:35.361Z,7.50
2023-02-02T21:42:08.077Z,5.75
2023-02-02T21:44:37.246Z,10.23
2023-02-02T21:47:30.721Z,10.93
2023-02-02T21:50:03.721Z,8.40
2023-02-02T21:52:33.946Z,7.15
2023-02-02T21:55:14.283Z,13.73
2023-02-02T21:57:42.193Z,8.00
2023-02-02T22:00:22.885Z,7.78
2023-02-02T22:02:54.098Z,11.68
2023-02-02T22:05:33.845Z,6.78
2023-02-02T22:08:02.985Z,9.85
2023-02-02T22:10:35.220Z,5.75
2023-02-02T22:13:11.383Z,7.30
2023-02-02T22:15:39.057Z,5.13
2023-02-02T22:18:35.625Z,5.32
2023-02-02T22:21:02.287Z,5.85
2023-02-02T22:23:29.118Z,4.90
2023-02-02T22:25:57.832Z,10.50
2023-02-02T22:28:29.885Z,7.28
2023-02-02T22:30:58.480Z,6.18
2023-02-02T22:33:26.658Z,6.22
2023-02-02T22:35:54.153Z,10.43
2023-02-02T22:38:23.326Z,6.95
2023-02-02T22:40:51.516Z,4.78
2023-02-02T22:43:20.359Z,5.03
2023-02-02T22:45:49.177Z,4.50
2023-02-02T22:48:16.526Z,7.63
2023-02-02T22:50:43.327Z,7.60
2023-02-02T22:53:10.226Z,5.32
2023-02-02T22:55:38.251Z,5.85
2023-02-02T22:58:05.002Z,7.13
2023-02-02T23:00:33.087Z,6.28
2023-02-02T23:03:00.566Z,7.07
2023-02-02T23:05:27.987Z,5.82
2023-02-02T23:07:55.397Z,6.10
2023-02-02T23:10:25.183Z,6.57
2023-02-02T23:12:56.014Z,7.50
2023-02-02T23:15:22.764Z,6.18
2023-02-02T23:17:49.736Z,9.18
2023-02-02T23:20:17.741Z,7.38
2023-02-02T23:22:44.736Z,8.30
2023-02-02T23:25:13.041Z,9.02
2023-02-02T23:27:40.519Z,9.10
2023-02-02T23:30:09.351Z,5.97
2023-02-02T23:32:36.322Z,6.35
2023-02-02T23:35:03.905Z,6.90
2023-02-02T23:37:30.736Z,7.13
2023-02-02T23:39:57.501Z,6.32
2023-02-02T23:42:25.620Z,6.68
2023-02-02T23:44:52.602Z,5.38
2023-02-02T23:47:19.735Z,6.85
2023-02-02T23:49:46.529Z,9.32
2023-02-02T23:52:13.607Z,8.55
2023-02-02T23:54:40.542Z,6.63
2023-02-02T23:57:07.311Z,6.80
2023-02-02T23:59:33.978Z,8.95
